Time;durP1;ratioP1;P1;durP2;ratioP2;P2;SDS_P1;SDS_P2;PMS_P1;PMS_P2;Temp;Humidity;BMP_temperature;BMP_pressure;BME280_temperature;BME280_humidity;BME280_pressure;Samples;Min_cycle;Max_cycle;Signal;HPM_P1;HPM_P2
2022/10/18 00:02:02;;;;;;;4.70;4.13;;;;;;;13.91;98.15;102585.78;5057002;28;20086;-76
2022/10/18 00:04:28;;;;;;;4.30;4.00;;;;;;;13.90;97.84;102577.94;5056569;28;20064;-76
2022/10/18 00:06:53;;;;;;;5.85;3.97;;;;;;;13.87;97.77;102578.88;5076556;28;20092;-75
2022/10/18 00:09:19;;;;;;;4.97;3.83;;;;;;;13.87;97.93;102581.53;5060795;28;20040;-76
2022/10/18 00:11:44;;;;;;;3.88;3.58;;;;;;;13.86;98.03;102585.06;5060415;28;20096;-76
2022/10/18 00:14:09;;;;;;;6.13;3.65;;;;;;;13.84;97.92;102586.84;5061333;28;20093;-75
2022/10/18 00:16:35;;;;;;;4.22;3.83;;;;;;;13.83;97.98;102588.63;5075558;28;20025;-76
2022/10/18 00:19:00;;;;;;;5.03;3.92;;;;;;;13.81;97.55;102593.09;5060955;28;20104;-76
2022/10/18 00:21:26;;;;;;;7.13;3.75;;;;;;;13.80;97.70;102590.50;5060050;28;20035;-76
2022/10/18 00:23:52;;;;;;;4.28;3.88;;;;;;;13.78;97.59;102585.25;5059639;28;20048;-76
2022/10/18 00:26:20;;;;;;;4.38;3.97;;;;;;;13.76;97.53;102580.94;5058596;28;20029;-76
2022/10/18 00:28:50;;;;;;;4.18;3.70;;;;;;;13.74;97.64;102577.50;5060194;28;20122;-76
2022/10/18 00:31:27;;;;;;;4.40;3.53;;;;;;;13.74;97.39;102585.41;5060248;28;20055;-75
2022/10/18 00:33:58;;;;;;;3.92;3.42;;;;;;;13.72;97.48;102597.75;5060565;28;20244;-75
2022/10/18 00:36:25;;;;;;;3.80;3.50;;;;;;;13.71;97.48;102590.72;5059676;28;20075;-76
2022/10/18 00:38:51;;;;;;;3.90;3.60;;;;;;;13.68;97.25;102599.59;5060390;28;20059;-76
2022/10/18 00:41:20;;;;;;;3.20;3.00;;;;;;;13.67;97.09;102602.25;5060043;28;20193;-76
2022/10/18 00:43:59;;;;;;;3.35;3.13;;;;;;;13.64;97.23;102603.19;5060161;28;20036;-76
2022/10/18 00:46:27;;;;;;;3.75;3.42;;;;;;;13.63;97.10;102604.09;5059551;28;20051;-76
2022/10/18 00:48:56;;;;;;;4.38;3.97;;;;;;;13.61;97.20;102604.13;5055235;28;20029;-76
2022/10/18 00:51:24;;;;;;;4.40;4.10;;;;;;;13.59;96.91;102598.03;5048569;28;20029;-76
2022/10/18 00:53:50;;;;;;;4.35;3.97;;;;;;;13.58;97.00;102598.94;5060263;28;20332;-76
2022/10/18 00:56:16;;;;;;;4.43;4.13;;;;;;;13.57;96.73;102598.97;5060054;28;20100;-76
2022/10/18 00:58:42;;;;;;;6.07;4.32;;;;;;;13.54;96.70;102597.28;5059484;28;20250;-76
2022/10/18 01:04:29;;;;;;;4.82;4.43;;;;;;;13.51;96.71;102600.00;4655970;28;20087;-76
2022/10/18 01:07:00;;;;;;;5.57;3.95;;;;;;;13.49;96.43;102598.31;5055839;28;20029;-76
2022/10/18 01:09:44;;;;;;;4.15;3.85;;;;;;;13.47;96.46;102600.97;5075396;28;20262;-76
2022/10/18 01:12:36;;;;;;;5.63;4.07;;;;;;;13.45;96.70;102602.78;5075608;28;20048;-75
2022/10/18 01:15:33;;;;;;;4.45;4.15;;;;;;;13.42;96.26;102618.66;5060166;28;20224;-76
2022/10/18 01:18:15;;;;;;;4.68;4.28;;;;;;;13.39;96.28;102616.97;5058296;28;20041;-76
2022/10/18 01:21:01;;;;;;;4.13;3.83;;;;;;;13.38;96.35;102611.72;5060062;28;20032;-75
2022/10/18 01:23:32;;;;;;;3.83;3.28;;;;;;;13.36;96.15;102611.75;5059356;28;20375;-75
2022/10/18 01:26:00;;;;;;;4.03;3.28;;;;;;;13.35;96.27;102612.69;5059854;28;20330;-76
2022/10/18 01:28:44;;;;;;;3.33;2.63;;;;;;;13.32;96.09;102610.13;5074796;28;20029;-76
2022/10/18 01:31:21;;;;;;;2.42;2.22;;;;;;;13.31;96.25;102603.09;5059328;28;20033;-76
2022/10/18 01:33:58;;;;;;;2.70;2.50;;;;;;;13.29;96.15;102604.03;5057825;28;20117;-76
2022/10/18 01:36:42;;;;;;;2.30;2.10;;;;;;;13.27;96.07;102601.44;5057691;28;20036;-76
2022/10/18 01:39:14;;;;;;;2.45;2.20;;;;;;;13.25;96.16;102601.47;5059959;28;20288;-76
2022/10/18 01:41:42;;;;;;;2.10;2.00;;;;;;;13.23;96.02;102608.53;5059528;28;20029;-76
2022/10/18 01:44:11;;;;;;;2.63;2.20;;;;;;;13.22;96.02;102608.56;5059696;28;20032;-76
2022/10/18 01:46:39;;;;;;;4.75;2.10;;;;;;;13.20;96.08;102608.59;5059406;28;20035;-76
2022/10/18 01:49:04;;;;;;;2.47;2.28;;;;;;;13.18;95.77;102605.13;5058340;28;20103;-76
2022/10/18 01:51:31;;;;;;;2.50;2.30;;;;;;;13.16;95.68;102604.31;5057845;28;20029;-76
2022/10/18 01:53:57;;;;;;;2.65;2.45;;;;;;;13.15;95.95;102618.38;5059682;28;20028;-76
2022/10/18 01:56:41;;;;;;;2.42;2.13;;;;;;;13.13;95.68;102628.06;5059361;28;20024;-75
2022/10/18 01:59:16;;;;;;;3.03;2.78;;;;;;;13.11;95.81;102619.34;5059491;28;20063;-76
2022/10/18 02:01:44;;;;;;;4.00;2.95;;;;;;;13.10;95.87;102622.00;5059541;28;20033;-75
2022/10/18 02:04:32;;;;;;;3.57;2.73;;;;;;;13.09;95.86;102622.91;5067966;28;20324;-76
2022/10/18 02:07:05;;;;;;;3.20;2.90;;;;;;;13.06;95.62;102622.09;5079321;28;20266;-75
2022/10/18 02:09:49;;;;;;;2.75;2.55;;;;;;;13.05;95.39;102622.97;5078852;28;20263;-75
2022/10/18 02:12:16;;;;;;;3.00;2.80;;;;;;;13.03;95.39;102616.03;5079115;28;20329;-76
2022/10/18 02:14:44;;;;;;;2.65;2.50;;;;;;;13.01;95.71;102621.31;5079066;28;20216;-76
2022/10/18 02:17:11;;;;;;;2.70;2.50;;;;;;;12.99;95.38;102615.22;5079188;28;20305;-76
2022/10/18 02:19:40;;;;;;;2.92;2.67;;;;;;;12.99;95.71;102619.63;5078821;28;20035;-76
2022/10/18 02:22:09;;;;;;;3.00;2.80;;;;;;;12.97;95.27;102629.28;5079265;28;20366;-75
2022/10/18 02:24:38;;;;;;;2.58;2.47;;;;;;;12.95;95.67;102624.09;5078578;28;20036;-75
2022/10/18 02:27:04;;;;;;;2.45;2.30;;;;;;;12.94;95.54;102634.66;5077420;28;20219;-76
2022/10/18 02:29:31;;;;;;;2.65;2.45;;;;;;;12.91;95.33;102630.28;5077884;28;20028;-76
2022/10/18 02:32:35;;;;;;;1.98;1.88;;;;;;;12.89;95.14;102629.47;5078864;28;20043;-75
2022/10/18 02:35:07;;;;;;;2.67;1.98;;;;;;;12.89;95.29;102631.25;5059232;28;20112;-75
2022/10/18 02:37:37;;;;;;;4.68;2.10;;;;;;;12.86;95.49;102627.78;5078439;28;20027;-75
2022/10/18 02:40:05;;;;;;;2.45;2.35;;;;;;;12.85;95.28;102625.19;5078735;28;20044;-76
2022/10/18 02:42:39;;;;;;;2.20;1.67;;;;;;;12.83;95.01;102625.22;5078091;28;20028;-76
2022/10/18 02:45:05;;;;;;;2.13;1.88;;;;;;;12.81;95.22;102632.28;5078717;28;20295;-75
2022/10/18 02:47:31;;;;;;;1.90;1.80;;;;;;;12.80;95.18;102633.16;5077963;28;20270;-76
2022/10/18 02:49:56;;;;;;;1.83;1.73;;;;;;;12.78;95.37;102634.09;5077782;28;20029;-76
2022/10/18 02:52:21;;;;;;;1.92;1.67;;;;;;;12.76;94.88;102635.91;5076768;28;20252;-75
2022/10/18 02:54:47;;;;;;;3.28;1.73;;;;;;;12.75;94.95;102642.03;5059700;28;20040;-75
2022/10/18 02:57:12;;;;;;;2.97;1.83;;;;;;;12.73;95.16;102628.94;5078276;28;20035;-75
2022/10/18 02:59:37;;;;;;;1.85;1.63;;;;;;;12.71;95.13;102617.59;5078582;28;20032;-75
2022/10/18 03:02:03;;;;;;;1.42;1.40;;;;;;;12.70;94.85;102618.50;5078684;28;20346;-76
2022/10/18 03:04:28;;;;;;;1.58;1.48;;;;;;;12.68;95.08;102622.94;5066765;28;20103;-76
2022/10/18 03:06:54;;;;;;;1.60;1.50;;;;;;;12.67;94.86;102632.56;5074109;28;20025;-75
2022/10/18 03:09:19;;;;;;;1.52;1.52;;;;;;;12.66;94.63;102629.94;5073647;28;20036;-75
2022/10/18 03:11:44;;;;;;;1.10;1.10;;;;;;;12.65;94.79;102628.25;5058309;28;20096;-75
2022/10/18 03:14:10;;;;;;;1.63;1.52;;;;;;;12.62;94.89;102626.53;5056916;28;20029;-76
2022/10/18 03:16:35;;;;;;;1.15;1.15;;;;;;;12.61;94.56;102626.59;5057948;28;20032;-75
2022/10/18 03:19:00;;;;;;;1.40;1.30;;;;;;;12.59;94.69;102628.38;5056920;28;20040;-76
2022/10/18 03:21:26;;;;;;;1.30;1.30;;;;;;;12.57;94.51;102632.78;5057845;28;20184;-75
2022/10/18 03:23:51;;;;;;;1.45;1.35;;;;;;;12.56;94.53;102638.94;5057781;28;20108;-75
2022/10/18 03:26:16;;;;;;;1.40;1.30;;;;;;;12.54;94.88;102631.09;5057821;28;20043;-76
2022/10/18 03:28:42;;;;;;;1.10;1.10;;;;;;;12.54;94.47;102633.72;5058380;28;20127;-75
2022/10/18 03:31:07;;;;;;;1.45;1.35;;;;;;;12.52;94.51;102632.03;5073738;28;20021;-76
2022/10/18 03:33:33;;;;;;;1.50;1.40;;;;;;;12.50;94.71;102637.31;5061177;28;20184;-76
2022/10/18 03:35:58;;;;;;;1.52;1.42;;;;;;;12.49;94.79;102640.81;5078200;28;20266;-75
2022/10/18 03:38:24;;;;;;;1.55;1.45;;;;;;;12.45;94.60;102645.28;5077605;28;20032;-75
2022/10/18 03:40:49;;;;;;;1.60;1.50;;;;;;;12.45;94.57;102642.66;5081224;28;20036;-75
2022/10/18 03:43:15;;;;;;;1.30;1.20;;;;;;;12.42;94.48;102640.06;5082467;28;20031;-75
2022/10/18 03:45:40;;;;;;;2.90;1.27;;;;;;;12.40;94.53;102641.84;5081068;28;20050;-75
2022/10/18 03:48:06;;;;;;;1.70;1.15;;;;;;;12.38;94.18;102646.28;5082561;28;20227;-75
2022/10/18 03:50:31;;;;;;;1.30;1.30;;;;;;;12.36;94.42;102645.44;5081468;28;20056;-75
2022/10/18 03:52:57;;;;;;;1.30;1.20;;;;;;;12.36;94.17;102639.34;5082616;28;20032;-75
2022/10/18 03:55:22;;;;;;;5.68;1.30;;;;;;;12.35;94.43;102635.84;5081556;28;20040;-75
2022/10/18 03:57:47;;;;;;;1.45;1.35;;;;;;;12.32;94.46;102635.91;5082182;28;20246;-76
2022/10/18 04:00:13;;;;;;;1.63;1.52;;;;;;;12.31;94.29;102636.78;5080520;28;20029;-76
2022/10/18 04:02:39;;;;;;;4.80;1.65;;;;;;;12.29;94.30;102634.19;5081828;28;20025;-75
2022/10/18 04:05:06;;;;;;;1.85;1.75;;;;;;;12.29;94.54;102635.94;5066288;28;20044;-75
2022/10/18 04:07:32;;;;;;;1.95;1.70;;;;;;;12.28;94.46;102629.84;5061569;28;20041;-75
2022/10/18 04:09:57;;;;;;;2.45;1.50;;;;;;;12.26;94.51;102638.63;5062372;28;20045;-75
2022/10/18 04:12:22;;;;;;;1.50;1.40;;;;;;;12.26;94.43;102646.50;5061074;28;20070;-75
2022/10/18 04:14:48;;;;;;;2.42;1.65;;;;;;;12.23;94.36;102636.09;5077466;28;20024;-75
2022/10/18 04:17:13;;;;;;;2.80;1.75;;;;;;;12.21;94.37;102622.97;5061635;28;20024;-75
2022/10/18 04:19:39;;;;;;;2.88;1.50;;;;;;;12.21;94.14;102622.97;5076746;28;20036;-75
2022/10/18 04:22:05;;;;;;;1.65;1.55;;;;;;;12.20;94.30;102623.00;5061630;28;20041;-75
2022/10/18 04:24:30;;;;;;;1.65;1.52;;;;;;;12.19;94.54;102622.16;5060867;28;20037;-75
2022/10/18 04:26:56;;;;;;;2.20;1.88;;;;;;;12.18;94.23;102628.28;5065404;28;20315;-75
2022/10/18 04:29:21;;;;;;;2.10;1.85;;;;;;;12.17;94.32;102633.56;5041380;28;20371;-75
2022/10/18 04:31:46;;;;;;;2.45;2.20;;;;;;;12.15;94.18;102633.63;5041577;28;20490;-75
2022/10/18 04:34:12;;;;;;;2.00;1.80;;;;;;;12.15;94.14;102637.97;5073731;28;20032;-76
2022/10/18 04:36:37;;;;;;;1.95;1.73;;;;;;;12.13;94.37;102637.13;5081963;28;20055;-75
2022/10/18 04:39:03;;;;;;;3.80;1.50;;;;;;;12.11;94.21;102639.78;5080576;28;20100;-75
2022/10/18 04:41:28;;;;;;;2.28;1.52;;;;;;;12.10;94.30;102645.97;5079855;28;20378;-75
2022/10/18 04:43:53;;;;;;;1.40;1.30;;;;;;;12.09;94.01;102646.84;5079863;28;20060;-75
2022/10/18 04:46:19;;;;;;;1.85;1.73;;;;;;;12.07;94.36;102646.84;5081034;28;20025;-75
2022/10/18 04:48:44;;;;;;;3.20;2.13;;;;;;;12.06;94.52;102645.16;5079908;28;20032;-75
2022/10/18 04:51:10;;;;;;;2.35;2.15;;;;;;;12.05;94.32;102646.03;5079415;28;20024;-75
2022/10/18 04:53:35;;;;;;;2.72;2.50;;;;;;;12.04;94.24;102643.41;5079503;28;20323;-75
2022/10/18 04:56:00;;;;;;;2.17;2.08;;;;;;;12.02;94.09;102656.56;5080994;28;20051;-75
2022/10/18 04:58:26;;;;;;;2.45;2.30;;;;;;;12.01;94.21;102654.84;5080590;28;20051;-75
2022/10/18 05:00:51;;;;;;;2.65;2.45;;;;;;;12.00;94.34;102654.88;5081489;28;20020;-75
2022/10/18 05:03:17;;;;;;;2.55;2.35;;;;;;;11.99;94.12;102651.41;5079566;28;20086;-75
2022/10/18 05:05:44;;;;;;;2.70;2.50;;;;;;;11.98;94.16;102652.28;5079697;28;20046;-75
2022/10/18 05:08:10;;;;;;;2.72;2.53;;;;;;;11.98;94.52;102661.94;5081601;28;20032;-75
2022/10/18 05:10:36;;;;;;;3.05;2.33;;;;;;;11.96;94.47;102668.97;5080377;28;20102;-75
2022/10/18 05:13:02;;;;;;;5.60;2.42;;;;;;;11.95;94.48;102662.84;5076535;28;20432;-75
2022/10/18 05:15:27;;;;;;;2.75;2.53;;;;;;;11.93;94.56;102675.13;5060800;28;20297;-75
2022/10/18 05:17:53;;;;;;;3.10;2.67;;;;;;;11.92;94.31;102681.28;5059560;28;20033;-75
2022/10/18 05:20:18;;;;;;;2.42;2.22;;;;;;;11.93;94.56;102687.38;5058870;28;20053;-75
2022/10/18 05:22:44;;;;;;;2.45;2.25;;;;;;;11.92;94.24;102688.31;5058304;28;20116;-75
2022/10/18 05:25:09;;;;;;;3.13;2.38;;;;;;;11.90;94.21;102694.44;5060926;28;20041;-75
2022/10/18 05:27:34;;;;;;;2.65;2.45;;;;;;;11.89;94.43;102684.78;5058911;28;20048;-75
2022/10/18 05:30:00;;;;;;;2.45;2.10;;;;;;;11.88;94.38;102683.06;5060786;28;20040;-75
2022/10/18 05:32:25;;;;;;;2.55;2.35;;;;;;;11.87;94.33;102669.94;5060196;28;20106;-75
2022/10/18 05:34:51;;;;;;;5.07;2.10;;;;;;;11.85;94.41;102667.34;5060671;28;20040;-75
2022/10/18 05:37:17;;;;;;;2.40;2.20;;;;;;;11.85;94.52;102669.97;5075433;28;20041;-75
2022/10/18 05:39:43;;;;;;;1.73;1.63;;;;;;;11.85;94.29;102679.63;5060115;28;20040;-75
2022/10/18 05:42:08;;;;;;;2.67;1.80;;;;;;;11.83;94.15;102684.88;5060034;28;20196;-75
2022/10/18 05:44:33;;;;;;;1.70;1.58;;;;;;;11.82;94.04;102684.91;5058531;28;20037;-75
2022/10/18 05:46:59;;;;;;;1.80;1.70;;;;;;;11.82;93.97;102684.91;5059930;28;20044;-75
2022/10/18 05:49:24;;;;;;;1.77;1.67;;;;;;;11.79;94.20;102683.22;5059936;28;20028;-76
2022/10/18 05:51:49;;;;;;;1.40;1.33;;;;;;;11.79;94.22;102683.22;5060188;28;20033;-75
2022/10/18 05:54:15;;;;;;;1.60;1.50;;;;;;;11.78;94.26;102691.97;5059690;28;20028;-75
2022/10/18 05:56:41;;;;;;;1.52;1.42;;;;;;;11.76;94.40;102693.75;5060050;28;20098;-75
2022/10/18 05:59:10;;;;;;;1.45;1.35;;;;;;;11.76;94.13;102695.50;5058750;28;20024;-75
2022/10/18 06:01:40;;;;;;;1.30;1.30;;;;;;;11.75;94.35;102699.03;5059540;28;20036;-75
2022/10/18 06:04:06;;;;;;;2.13;1.45;;;;;;;11.74;94.29;102705.19;5074181;28;20041;-76
2022/10/18 06:06:32;;;;;;;1.50;1.38;;;;;;;11.72;94.20;102706.06;5058214;28;20082;-75
2022/10/18 06:08:57;;;;;;;1.85;1.30;;;;;;;11.72;94.06;102719.19;5059795;28;20024;-75
2022/10/18 06:11:23;;;;;;;1.20;1.20;;;;;;;11.71;94.23;102733.22;5059395;28;20028;-75
2022/10/18 06:13:50;;;;;;;1.70;1.40;;;;;;;11.70;94.21;102723.59;5058283;28;20126;-75
2022/10/18 06:16:19;;;;;;;2.53;1.35;;;;;;;11.68;94.42;102717.50;5059466;28;20028;-75
2022/10/18 06:18:50;;;;;;;2.63;1.30;;;;;;;11.67;94.43;102713.13;5059752;28;20024;-75
2022/10/18 06:21:16;;;;;;;1.90;1.10;;;;;;;11.67;94.15;102726.25;5059303;28;20040;-75
2022/10/18 06:23:41;;;;;;;1.38;1.20;;;;;;;11.66;94.15;102737.66;5059080;28;20049;-75
2022/10/18 06:26:09;;;;;;;1.55;1.10;;;;;;;11.66;94.26;102742.00;5052395;28;20035;-75
2022/10/18 06:28:35;;;;;;;1.35;1.23;;;;;;;11.66;94.23;102737.66;5045111;28;20040;-75
2022/10/18 06:31:01;;;;;;;1.00;1.00;;;;;;;11.64;94.37;102739.44;5038675;28;20205;-75
2022/10/18 06:33:26;;;;;;;1.23;1.10;;;;;;;11.63;94.18;102744.72;5040872;28;20131;-75
2022/10/18 06:35:59;;;;;;;0.90;0.90;;;;;;;11.62;94.44;102753.47;5074693;28;20028;-75
2022/10/18 06:38:24;;;;;;;0.90;0.90;;;;;;;11.61;94.39;102752.59;5073596;28;20185;-76
2022/10/18 06:40:49;;;;;;;1.55;0.98;;;;;;;11.60;94.23;102756.09;5059021;28;20118;-75
2022/10/18 06:43:15;;;;;;;1.30;1.20;;;;;;;11.60;94.36;102753.47;5074076;28;20038;-75
2022/10/18 06:45:40;;;;;;;1.55;0.80;;;;;;;11.59;94.09;102746.50;5074347;28;20282;-75
2022/10/18 06:48:06;;;;;;;1.95;1.10;;;;;;;11.58;94.17;102746.53;5073921;28;20041;-75
2022/10/18 06:50:31;;;;;;;1.40;0.75;;;;;;;11.56;94.16;102759.66;5073440;28;20039;-75
2022/10/18 06:52:56;;;;;;;1.17;0.85;;;;;;;11.56;94.29;102764.06;5058921;28;20017;-75
2022/10/18 06:55:22;;;;;;;1.05;0.82;;;;;;;11.55;94.46;102765.81;5057342;28;20304;-75
2022/10/18 06:57:47;;;;;;;1.90;0.70;;;;;;;11.55;94.23;102765.81;5040615;28;20107;-75
2022/10/18 07:00:13;;;;;;;0.77;0.73;;;;;;;11.54;94.36;102764.06;5058604;28;20036;-75
2022/10/18 07:02:40;;;;;;;1.02;0.93;;;;;;;11.53;94.02;102768.47;5058583;28;20392;-75
2022/10/18 07:05:06;;;;;;;2.90;0.85;;;;;;;11.52;94.16;102774.59;5072619;28;20024;-75
2022/10/18 07:07:32;;;;;;;1.73;0.70;;;;;;;11.51;94.15;102783.34;5057860;28;20103;-75
2022/10/18 07:09:57;;;;;;;2.17;1.00;;;;;;;11.50;94.40;102792.09;5053820;28;20063;-75
2022/10/18 07:12:23;;;;;;;2.03;1.00;;;;;;;11.50;94.22;102784.22;5056340;28;20048;-75
2022/10/18 07:14:48;;;;;;;1.05;0.93;;;;;;;11.50;94.26;102783.38;5057723;28;20268;-75
2022/10/18 07:17:13;;;;;;;1.50;0.80;;;;;;;11.49;94.53;102781.63;5056316;28;20346;-75
2022/10/18 07:19:39;;;;;;;0.70;0.70;;;;;;;11.49;94.11;102779.88;5055700;28;20260;-75
2022/10/18 07:22:04;;;;;;;0.90;0.90;;;;;;;11.49;94.35;102792.13;5023047;28;20021;-75
2022/10/18 07:24:30;;;;;;;0.73;0.73;;;;;;;11.47;94.40;102794.75;5039413;28;20041;-75
2022/10/18 07:26:55;;;;;;;0.75;0.65;;;;;;;11.48;94.62;102795.66;5049444;28;20039;-75
2022/10/18 07:29:21;;;;;;;2.47;0.70;;;;;;;11.46;94.34;102790.41;5074608;28;20254;-75
2022/10/18 07:31:46;;;;;;;1.65;0.70;;;;;;;11.47;94.78;102807.03;5055972;28;20287;-75
2022/10/18 07:34:12;;;;;;;0.60;0.60;;;;;;;11.45;94.67;102809.66;5065036;28;20258;-76
2022/10/18 07:36:38;;;;;;;0.90;0.90;;;;;;;11.45;94.57;102812.28;5077207;28;20220;-75
2022/10/18 07:39:03;;;;;;;1.48;0.73;;;;;;;11.45;94.85;102812.28;5078082;28;20032;-76
2022/10/18 07:41:32;;;;;;;1.67;0.85;;;;;;;11.45;94.97;102824.53;5076611;28;20087;-75
2022/10/18 07:43:58;;;;;;;0.70;0.70;;;;;;;11.44;94.92;102815.81;5077115;28;20390;-75
2022/10/18 07:46:23;;;;;;;0.70;0.70;;;;;;;11.44;95.05;102818.44;5075659;28;20044;-76
2022/10/18 07:48:49;;;;;;;1.00;1.00;;;;;;;11.45;95.09;102824.53;5076031;28;20040;-75
2022/10/18 07:51:15;;;;;;;0.93;0.90;;;;;;;11.45;95.11;102838.53;5075789;28;20037;-75
2022/10/18 07:53:41;;;;;;;2.17;0.90;;;;;;;11.45;95.15;102841.16;5073158;28;20021;-75
2022/10/18 07:56:14;;;;;;;1.73;1.15;;;;;;;11.45;95.54;102828.03;5057052;28;20099;-75
2022/10/18 07:58:40;;;;;;;0.90;0.90;;;;;;;11.47;95.19;102841.13;5055978;28;20232;-75
2022/10/18 08:01:07;;;;;;;1.55;1.10;;;;;;;11.45;95.28;102846.38;5056523;28;20040;-75
2022/10/18 08:03:33;;;;;;;1.25;1.00;;;;;;;11.46;95.30;102842.91;5054713;28;20086;-75
2022/10/18 08:05:59;;;;;;;2.63;1.27;;;;;;;11.46;95.23;102839.38;5054882;28;20045;-75
2022/10/18 08:08:25;;;;;;;2.53;1.55;;;;;;;11.47;95.27;102842.00;5055935;28;20033;-76
2022/10/18 08:10:51;;;;;;;3.97;1.50;;;;;;;11.47;95.69;102852.47;5056007;28;20037;-76
2022/10/18 08:13:16;;;;;;;1.23;1.13;;;;;;;11.48;95.84;102842.88;5056064;28;20275;-75
2022/10/18 08:15:42;;;;;;;2.95;1.23;;;;;;;11.48;95.50;102845.50;5056105;28;20024;-75
2022/10/18 08:18:08;;;;;;;1.60;1.50;;;;;;;11.48;95.60;102848.13;5072147;28;20025;-75
2022/10/18 08:20:35;;;;;;;2.60;1.50;;;;;;;11.49;95.83;102848.09;5054579;28;20500;-75
2022/10/18 08:23:01;;;;;;;2.53;1.67;;;;;;;11.50;95.93;102849.84;5054952;28;20040;-75
2022/10/18 08:25:28;;;;;;;3.45;1.90;;;;;;;11.49;96.32;102849.84;5056052;28;20029;-75
2022/10/18 08:27:53;;;;;;;2.10;1.90;;;;;;;11.50;95.88;102848.97;5060540;28;20033;-75
2022/10/18 08:30:18;;;;;;;2.80;1.95;;;;;;;11.51;95.71;102855.94;5074927;28;20036;-75
2022/10/18 08:32:44;;;;;;;3.50;2.20;;;;;;;11.50;96.07;102855.09;5058465;28;20147;-75
2022/10/18 08:35:09;;;;;;;5.47;2.25;;;;;;;11.53;96.26;102859.41;5061193;28;20028;-75
2022/10/18 08:37:34;;;;;;;5.75;2.58;;;;;;;11.55;97.30;102849.78;5058107;28;20365;-75
2022/10/18 08:40:00;;;;;;;3.88;2.10;;;;;;;11.56;97.72;102841.00;5058825;28;20040;-75
2022/10/18 08:42:46;;;;;;;6.55;2.58;;;;;;;11.58;97.32;102844.47;5059041;28;20220;-75
2022/10/18 08:45:12;;;;;;;5.78;2.92;;;;;;;11.62;98.40;102856.66;5059272;28;20230;-75
2022/10/18 08:47:41;;;;;;;3.55;2.40;;;;;;;11.65;99.21;102855.78;5059283;28;20029;-75
2022/10/18 08:50:10;;;;;;;4.63;2.55;;;;;;;11.66;99.23;102861.00;5059093;28;20191;-75
2022/10/18 08:52:45;;;;;;;4.43;2.30;;;;;;;11.68;99.43;102863.63;5052188;28;20095;-75
2022/10/18 08:55:18;;;;;;;5.57;2.28;;;;;;;11.70;100.00;102857.44;5058773;28;20017;-75
2022/10/18 08:57:46;;;;;;;4.38;2.50;;;;;;;11.71;100.00;102851.31;5059005;28;20035;-75
2022/10/18 09:00:17;;;;;;;5.95;2.13;;;;;;;11.75;100.00;102851.25;5068232;28;20024;-75
2022/10/18 09:03:00;;;;;;;5.45;2.40;;;;;;;11.76;100.00;102853.00;5062958;28;20209;-75
2022/10/18 09:05:54;;;;;;;8.93;2.10;;;;;;;11.80;100.00;102845.06;5090891;28;20021;-75
2022/10/18 09:08:29;;;;;;;7.00;1.90;;;;;;;11.82;100.00;102845.03;5058324;28;20040;-75
2022/10/18 09:11:19;;;;;;;7.90;2.58;;;;;;;11.85;100.00;102852.88;5065020;28;20032;-75
2022/10/18 09:14:09;;;;;;;7.60;2.30;;;;;;;11.87;100.00;102857.22;5044961;28;20025;-75
2022/10/18 09:16:50;;;;;;;16.77;2.13;;;;;;;11.94;100.00;102862.44;5056960;28;20035;-75
2022/10/18 09:19:40;;;;;;;3.67;1.58;;;;;;;11.95;100.00;102867.66;5067474;28;20035;-75
2022/10/18 09:22:13;;;;;;;7.00;1.50;;;;;;;11.98;100.00;102870.22;5059118;28;20379;-75
2022/10/18 09:24:43;;;;;;;7.32;1.50;;;;;;;12.00;100.00;102870.22;5068798;28;20024;-75
2022/10/18 09:27:17;;;;;;;9.23;1.83;;;;;;;12.01;100.00;102867.56;5063135;28;20331;-75
2022/10/18 09:30:02;;;;;;;3.97;1.30;;;;;;;12.03;100.00;102871.03;5058649;28;20088;-75
2022/10/18 09:33:00;;;;;;;11.98;2.03;;;;;;;12.04;97.70;102869.25;5059557;28;20320;-75
2022/10/18 09:35:37;;;;;;;4.70;1.35;;;;;;;12.06;97.98;102881.50;5058960;28;20048;-75
2022/10/18 09:38:08;;;;;;;4.47;1.00;;;;;;;12.06;96.25;102886.75;5059574;28;20032;-75
2022/10/18 09:40:37;;;;;;;6.82;1.10;;;;;;;12.09;96.79;102891.94;5074508;28;20067;-75
2022/10/18 09:43:13;;;;;;;7.28;1.27;;;;;;;12.12;96.85;102884.94;5059239;28;20028;-75
2022/10/18 09:45:42;;;;;;;6.35;1.85;;;;;;;12.15;96.94;102890.13;5043338;28;20105;-75
2022/10/18 09:48:16;;;;;;;5.88;1.13;;;;;;;12.15;95.93;102890.13;5066059;28;20328;-75
2022/10/18 09:51:04;;;;;;;7.22;1.92;;;;;;;12.16;95.54;102886.63;5074498;28;20077;-75
2022/10/18 09:53:39;;;;;;;8.35;1.45;;;;;;;12.19;95.76;102905.81;5057269;28;20431;-75
2022/10/18 09:56:10;;;;;;;6.72;1.20;;;;;;;12.26;96.47;102904.84;5059417;28;20048;-75
2022/10/18 09:58:54;;;;;;;8.88;1.48;;;;;;;12.33;95.42;102910.84;5059119;28;20036;-75
2022/10/18 10:01:28;;;;;;;7.15;1.30;;;;;;;12.41;95.57;102905.50;5057789;28;20032;-75
2022/10/18 10:03:54;;;;;;;4.55;1.30;;;;;;;12.49;96.10;102906.25;5059550;28;20025;-75
2022/10/18 10:06:28;;;;;;;8.10;1.60;;;;;;;12.51;95.12;102909.72;5056252;28;20112;-75
2022/10/18 10:08:57;;;;;;;7.70;1.60;;;;;;;12.56;94.99;102910.50;5058546;28;20029;-75
2022/10/18 10:11:36;;;;;;;;;;;;;;;12.57;94.31;102917.53;5056679;28;20025;-75
2022/10/18 10:14:11;;;;;;;11.65;1.50;;;;;;;12.60;94.35;102922.69;5056973;28;20426;-75
2022/10/18 10:16:50;;;;;;;12.77;1.23;;;;;;;12.64;95.45;102915.63;5058052;28;20067;-75
2022/10/18 10:19:31;;;;;;;11.35;1.30;;;;;;;12.69;95.96;102921.69;5058054;28;20330;-75
2022/10/18 10:22:24;;;;;;;8.65;1.13;;;;;;;12.72;94.29;102919.03;5060147;28;20031;-75
2022/10/18 10:24:53;;;;;;;6.13;1.15;;;;;;;12.73;91.99;102922.50;5058735;28;20277;-75
2022/10/18 10:27:45;;;;;;;7.13;0.90;;;;;;;12.76;91.85;102918.06;5055650;28;20109;-75
2022/10/18 10:30:29;;;;;;;10.40;1.63;;;;;;;12.75;91.07;102911.09;5047766;28;20239;-75
2022/10/18 10:32:56;;;;;;;7.40;1.27;;;;;;;12.76;90.96;102923.34;5058636;28;20017;-75
2022/10/18 10:35:32;;;;;;;9.15;1.55;;;;;;;12.76;90.74;102923.34;5059840;28;20060;-75
2022/10/18 10:37:58;;;;;;;7.95;1.40;;;;;;;12.77;91.53;102932.97;5057073;28;20052;-75
2022/10/18 10:40:26;;;;;;;9.80;1.38;;;;;;;12.80;91.90;102932.03;5057142;28;20029;-75
2022/10/18 10:42:59;;;;;;;5.40;1.27;;;;;;;12.82;91.45;102940.75;5053391;28;20052;-75
2022/10/18 10:45:28;;;;;;;4.85;0.98;;;;;;;12.82;90.93;102940.75;5057386;28;20505;-76
2022/10/18 10:48:00;;;;;;;9.02;1.70;;;;;;;12.85;90.84;102932.84;5058390;28;20263;-75
2022/10/18 10:50:27;;;;;;;7.28;1.13;;;;;;;12.86;90.93;102940.69;5058346;28;20471;-75
2022/10/18 10:52:54;;;;;;;11.98;1.60;;;;;;;12.90;91.00;102938.88;5071469;28;20021;-75
2022/10/18 10:55:26;;;;;;;6.15;1.13;;;;;;;12.92;89.64;102942.34;5065317;28;20298;-76
2022/10/18 10:57:54;;;;;;;7.22;1.05;;;;;;;12.94;89.09;102944.97;5068974;28;20029;-75
2022/10/18 11:00:38;;;;;;;5.43;1.08;;;;;;;12.98;89.10;102938.75;5072783;28;20020;-76
2022/10/18 11:03:19;;;;;;;5.65;0.82;;;;;;;13.00;89.20;102943.06;5073554;28;20114;-75
2022/10/18 11:05:51;;;;;;;6.82;1.55;;;;;;;13.02;88.01;102946.56;5069669;28;20381;-75
2022/10/18 11:08:24;;;;;;;8.00;1.20;;;;;;;13.06;87.97;102948.25;5058633;28;20362;-76
2022/10/18 11:11:03;;;;;;;6.97;1.05;;;;;;;13.10;88.13;102953.44;5057243;28;20320;-76
2022/10/18 11:13:48;;;;;;;4.70;0.80;;;;;;;13.12;87.84;102942.00;5057890;28;20079;-75
2022/10/18 11:16:28;;;;;;;5.40;0.90;;;;;;;13.14;87.60;102937.59;5052067;28;20328;-75
2022/10/18 11:18:56;;;;;;;5.22;1.40;;;;;;;13.16;87.62;102942.81;5070455;28;20020;-75
2022/10/18 11:21:26;;;;;;;4.72;1.13;;;;;;;13.16;88.42;102941.06;5058196;28;20029;-75
2022/10/18 11:23:53;;;;;;;4.40;0.93;;;;;;;13.17;86.98;102948.06;5057377;28;20350;-75
2022/10/18 11:26:33;;;;;;;5.45;0.90;;;;;;;13.19;86.58;102948.91;5066495;28;20037;-75
2022/10/18 11:29:14;;;;;;;8.13;1.00;;;;;;;13.21;87.59;102936.56;5057957;28;20032;-75
2022/10/18 11:32:04;;;;;;;11.50;1.38;;;;;;;13.22;85.20;102938.31;5050772;28;20382;-76
2022/10/18 11:35:01;;;;;;;8.00;1.35;;;;;;;13.25;85.01;102940.03;5057605;28;20028;-75
2022/10/18 11:37:46;;;;;;;6.28;1.63;;;;;;;13.28;85.51;102931.19;5039072;28;20052;-75
2022/10/18 11:40:36;;;;;;;8.63;1.45;;;;;;;13.30;84.17;102939.91;5057661;28;20036;-75